Time;durP1;ratioP1;P1;durP2;ratioP2;P2;SDS_P1;SDS_P2;PMS_P1;PMS_P2;Temp;Humidity;BMP_temperature;BMP_pressure;BME280_temperature;BME280_humidity;BME280_pressure;Samples;Min_cycle;Max_cycle;Signal;HPM_P1;HPM_P2
2021/12/01 00:00:37;;;;;;;7.20;4.97;;;8.70;92.00;;;;;;5014865;28;20053;-52
2021/12/01 00:03:03;;;;;;;4.45;2.97;;;8.70;92.00;;;;;;5015210;28;20101;-52
2021/12/01 00:05:32;;;;;;;4.80;2.92;;;8.70;92.00;;;;;;5014948;28;20481;-51
2021/12/01 00:07:59;;;;;;;9.23;4.93;;;8.80;92.10;;;;;;5014626;28;20117;-52
2021/12/01 00:10:26;;;;;;;16.35;10.80;;;8.80;92.40;;;;;;5014897;28;20034;-52
2021/12/01 00:12:52;;;;;;;8.10;4.38;;;8.80;92.10;;;;;;5014897;28;20057;-52
2021/12/01 00:15:18;;;;;;;4.38;2.50;;;8.80;92.20;;;;;;5029072;28;20084;-54
2021/12/01 00:17:44;;;;;;;7.13;4.05;;;9.50;92.70;;;;;;5010497;28;20058;-51
2021/12/01 00:20:13;;;;;;;10.88;6.45;;;8.80;92.00;;;;;;4994975;28;20529;-52
2021/12/01 00:22:40;;;;;;;3.55;1.98;;;8.90;91.90;;;;;;5014658;28;20030;-53
2021/12/01 00:25:08;;;;;;;4.18;1.88;;;8.90;92.70;;;;;;5014568;28;20030;-52
2021/12/01 00:27:34;;;;;;;3.30;1.95;;;8.90;92.60;;;;;;5015049;28;20022;-54
2021/12/01 00:30:00;;;;;;;3.47;1.75;;;8.90;92.80;;;;;;5014877;28;20470;-53
2021/12/01 00:32:26;;;;;;;4.07;2.30;;;8.90;92.50;;;;;;5014607;28;20038;-53
2021/12/01 00:34:52;;;;;;;4.05;1.90;;;8.80;92.60;;;;;;5014386;28;20029;-53
2021/12/01 00:37:18;;;;;;;3.35;2.20;;;8.80;92.60;;;;;;5014233;28;20478;-51
2021/12/01 00:39:45;;;;;;;9.02;4.88;;;8.90;92.80;;;;;;5012236;28;20045;-53
2021/12/01 00:42:11;;;;;;;8.82;5.40;;;9.00;92.90;;;;;;5014258;28;20033;-51
2021/12/01 00:44:45;;;;;;;23.67;14.07;;;9.00;92.80;;;;;;5014288;28;20030;-53
2021/12/01 00:47:12;;;;;;;18.30;10.20;;;9.10;92.90;;;;;;5013831;28;20054;-51
2021/12/01 00:49:38;;;;;;;11.02;5.03;;;9.10;92.30;;;;;;5014568;28;20034;-52
2021/12/01 00:52:04;;;;;;;5.93;3.38;;;9.10;92.30;;;;;;5013919;28;20080;-51
2021/12/01 00:54:30;;;;;;;6.15;2.95;;;9.10;92.00;;;;;;5028560;28;20128;-53
2021/12/01 00:56:56;;;;;;;5.63;2.45;;;9.20;92.10;;;;;;4997244;28;20704;-51
2021/12/01 00:59:22;;;;;;;4.93;2.17;;;9.30;92.00;;;;;;4994361;28;20035;-53
2021/12/01 01:01:47;;;;;;;5.03;2.92;;;9.30;92.30;;;;;;4994533;28;20118;-54
2021/12/01 01:04:14;;;;;;;9.05;3.45;;;9.20;92.20;;;;;;4994189;28;20027;-52
2021/12/01 01:06:40;;;;;;;22.05;7.75;;;9.20;92.30;;;;;;4994347;28;20058;-52
2021/12/01 01:09:07;;;;;;;19.48;8.43;;;9.20;92.10;;;;;;4994304;28;20130;-53
2021/12/01 01:17:09;;;;;;;25.38;10.48;;;9.00;92.50;;;;;;4991881;28;20122;-54
2021/12/01 01:19:39;;;;;;;11.80;5.40;;;8.70;92.90;;;;;;4991276;28;20034;-54
2021/12/01 01:22:06;;;;;;;13.93;7.70;;;8.80;93.00;;;;;;4991673;28;20042;-51
2021/12/01 01:24:34;;;;;;;8.05;4.82;;;8.50;94.50;;;;;;4991741;28;20026;-52
2021/12/01 01:27:00;;;;;;;8.95;5.13;;;8.20;95.90;;;;;;4991544;28;20049;-52
2021/12/01 01:29:26;;;;;;;7.25;4.05;;;7.80;96.40;;;;;;4991645;28;20034;-53
2021/12/01 01:31:55;;;;;;;5.95;3.60;;;7.80;96.50;;;;;;4991544;28;20049;-52
2021/12/01 01:34:21;;;;;;;6.78;3.88;;;7.60;96.90;;;;;;4991397;28;20038;-51
2021/12/01 01:36:48;;;;;;;4.90;2.90;;;7.50;96.90;;;;;;4975015;28;20038;-53
2021/12/01 01:39:14;;;;;;;5.78;3.65;;;7.40;96.90;;;;;;4991466;28;20026;-51
2021/12/01 01:41:40;;;;;;;5.38;3.30;;;7.60;97.20;;;;;;4991433;28;20125;-53
2021/12/01 01:44:05;;;;;;;6.38;3.38;;;7.80;96.90;;;;;;4991405;28;20525;-53
2021/12/01 01:46:36;;;;;;;6.40;3.53;;;7.60;96.10;;;;;;4991161;28;20062;-53
2021/12/01 01:49:20;;;;;;;7.57;4.03;;;7.90;96.70;;;;;;5007932;28;20069;-53
2021/12/01 01:51:48;;;;;;;7.03;4.10;;;8.00;95.80;;;;;;4993391;28;20124;-53
2021/12/01 01:54:15;;;;;;;8.35;4.57;;;8.00;95.80;;;;;;4993418;28;20026;-54
2021/12/01 01:56:41;;;;;;;7.28;4.25;;;7.90;95.80;;;;;;4993354;28;20034;-52
2021/12/01 01:59:07;;;;;;;5.75;2.97;;;7.70;95.70;;;;;;4993591;28;20063;-53
2021/12/01 02:01:46;;;;;;;5.10;3.13;;;7.50;95.60;;;;;;4993846;28;20098;-52
2021/12/01 02:04:15;;;;;;;6.20;3.10;;;7.40;95.80;;;;;;5010670;28;20042;-51
2021/12/01 02:06:43;;;;;;;6.65;2.63;;;7.40;95.80;;;;;;5010603;28;20555;-52
2021/12/01 02:09:09;;;;;;;6.03;3.35;;;7.30;95.90;;;;;;5010561;28;20069;-53
2021/12/01 02:11:35;;;;;;;2.97;1.98;;;7.10;96.30;;;;;;5010496;28;20136;-52
2021/12/01 02:14:02;;;;;;;3.60;2.03;;;6.90;96.50;;;;;;5010688;28;20127;-53
2021/12/01 02:16:28;;;;;;;3.88;2.10;;;6.90;96.60;;;;;;5010469;28;20034;-53
2021/12/01 02:18:54;;;;;;;5.03;2.50;;;6.90;96.80;;;;;;4993906;28;20038;-52
2021/12/01 02:21:28;;;;;;;3.70;2.33;;;6.90;96.70;;;;;;5010276;28;20042;-52
2021/12/01 02:24:01;;;;;;;4.03;2.30;;;7.10;96.80;;;;;;5008383;28;20129;-51
2021/12/01 02:26:30;;;;;;;5.75;3.25;;;7.20;96.80;;;;;;5010259;28;20046;-53
2021/12/01 02:28:59;;;;;;;5.20;3.33;;;7.10;97.10;;;;;;5010335;28;20038;-53
2021/12/01 02:31:28;;;;;;;4.60;3.42;;;7.10;97.50;;;;;;4995198;28;20034;-51
2021/12/01 02:33:56;;;;;;;5.32;3.90;;;7.10;98.30;;;;;;5014573;28;20033;-52
2021/12/01 02:36:23;;;;;;;6.10;5.05;;;7.10;98.70;;;;;;5014292;28;20052;-52
2021/12/01 02:38:49;;;;;;;6.57;4.72;;;7.00;98.90;;;;;;5014373;28;20506;-52
2021/12/01 02:41:16;;;;;;;4.35;2.65;;;7.30;99.00;;;;;;4997729;28;20105;-54
2021/12/01 02:43:47;;;;;;;4.10;2.65;;;7.20;98.90;;;;;;5014297;28;20030;-52
2021/12/01 02:46:13;;;;;;;4.30;3.05;;;7.10;99.10;;;;;;5014059;28;20045;-53
2021/12/01 02:48:44;;;;;;;5.82;2.90;;;7.40;98.90;;;;;;5014109;28;20030;-52
2021/12/01 02:51:11;;;;;;;9.03;3.07;;;7.40;98.70;;;;;;5014157;28;20034;-53
2021/12/01 02:53:39;;;;;;;3.90;2.33;;;7.60;98.40;;;;;;5013995;28;20041;-53
2021/12/01 02:56:06;;;;;;;3.55;2.25;;;7.80;98.00;;;;;;5014034;28;20072;-53
2021/12/01 02:58:33;;;;;;;4.40;2.55;;;8.00;97.50;;;;;;5016299;28;20038;-53
2021/12/01 03:01:04;;;;;;;8.05;3.13;;;7.90;96.90;;;;;;5016120;28;20030;-52
2021/12/01 03:03:31;;;;;;;3.83;2.40;;;7.70;96.60;;;;;;5016215;28;20030;-53
2021/12/01 03:05:58;;;;;;;3.72;2.55;;;7.40;96.90;;;;;;5016182;28;20045;-53
2021/12/01 03:08:24;;;;;;;4.47;2.20;;;7.40;97.50;;;;;;5016098;28;20025;-52
2021/12/01 03:10:52;;;;;;;4.03;2.50;;;7.50;97.20;;;;;;5016280;28;20028;-54
2021/12/01 03:13:20;;;;;;;3.80;2.50;;;7.50;97.40;;;;;;5015979;28;20025;-53
2021/12/01 03:15:46;;;;;;;3.63;2.65;;;7.70;97.30;;;;;;5016102;28;20157;-53
2021/12/01 03:18:13;;;;;;;3.85;2.30;;;7.90;97.10;;;;;;5030432;28;20397;-54
2021/12/01 03:20:40;;;;;;;5.50;2.70;;;8.00;97.10;;;;;;5015775;28;20518;-54
2021/12/01 03:23:06;;;;;;;4.53;2.90;;;8.00;97.20;;;;;;5016088;28;20049;-52
2021/12/01 03:25:33;;;;;;;5.25;2.90;;;8.00;96.80;;;;;;5015812;28;20052;-53
2021/12/01 03:27:59;;;;;;;4.75;3.17;;;8.00;96.20;;;;;;5015601;28;20376;-52
2021/12/01 03:30:25;;;;;;;7.15;2.80;;;8.00;96.30;;;;;;5015662;28;20029;-54
2021/12/01 03:32:51;;;;;;;4.43;2.60;;;8.00;97.00;;;;;;5030225;28;20034;-54
2021/12/01 03:35:18;;;;;;;4.68;3.00;;;8.00;97.10;;;;;;5015473;28;20037;-54
2021/12/01 03:37:46;;;;;;;7.40;5.25;;;8.00;95.90;;;;;;5030027;28;20066;-52
2021/12/01 03:40:13;;;;;;;13.75;9.25;;;8.10;96.70;;;;;;5015629;28;20034;-53
2021/12/01 03:42:40;;;;;;;32.88;21.55;;;8.10;96.30;;;;;;5015047;28;20396;-52
2021/12/01 03:45:07;;;;;;;18.27;12.02;;;8.20;96.00;;;;;;5015387;28;20037;-54
2021/12/01 03:47:34;;;;;;;13.77;7.55;;;8.20;95.70;;;;;;5015075;28;20046;-53
2021/12/01 03:50:00;;;;;;;6.45;3.38;;;8.00;95.80;;;;;;5015355;28;20048;-55
2021/12/01 03:52:27;;;;;;;7.05;3.80;;;7.90;95.90;;;;;;5015066;28;20594;-55
2021/12/01 03:54:53;;;;;;;6.38;4.43;;;8.00;95.90;;;;;;5015014;28;20029;-53
2021/12/01 03:57:20;;;;;;;7.57;5.32;;;8.10;96.40;;;;;;5029782;28;20172;-54
2021/12/01 03:59:46;;;;;;;9.82;6.68;;;8.00;96.20;;;;;;5014970;28;20551;-54
2021/12/01 04:02:12;;;;;;;9.65;6.30;;;8.00;96.00;;;;;;5014967;28;20060;-54
2021/12/01 04:04:38;;;;;;;17.88;11.73;;;8.30;96.20;;;;;;5012555;28;20370;-53
2021/12/01 04:07:04;;;;;;;17.73;12.93;;;8.40;96.00;;;;;;5014980;28;20033;-54
2021/12/01 04:09:31;;;;;;;15.77;10.48;;;8.30;95.60;;;;;;5014811;28;20026;-53
2021/12/01 04:11:57;;;;;;;9.57;6.55;;;8.40;96.20;;;;;;5015215;28;20038;-52
2021/12/01 04:14:23;;;;;;;12.43;6.97;;;8.40;96.60;;;;;;5014818;28;20526;-53
2021/12/01 04:16:49;;;;;;;11.30;6.40;;;8.50;96.60;;;;;;5014779;28;20096;-52
2021/12/01 04:19:15;;;;;;;12.70;8.18;;;8.40;96.90;;;;;;5015055;28;20034;-54
2021/12/01 04:21:41;;;;;;;11.70;7.78;;;8.40;97.20;;;;;;5014698;28;20034;-57
2021/12/01 04:24:08;;;;;;;7.70;5.13;;;8.40;96.70;;;;;;5014643;28;20036;-53
2021/12/01 04:26:34;;;;;;;12.63;7.13;;;8.50;96.60;;;;;;5014620;28;20425;-54
2021/12/01 04:29:03;;;;;;;11.48;6.30;;;8.50;97.10;;;;;;5014477;28;20496;-52
2021/12/01 04:31:30;;;;;;;12.48;7.60;;;8.50;97.20;;;;;;5014394;28;20057;-53
2021/12/01 04:33:57;;;;;;;23.80;14.32;;;8.50;96.90;;;;;;5014493;28;20030;-54
2021/12/01 04:36:29;;;;;;;53.90;28.88;;;8.60;97.20;;;;;;5014519;28;20113;-52
2021/12/01 04:38:56;;;;;;;130.80;77.82;;;8.60;96.30;;;;;;5014459;28;20096;-54
2021/12/01 04:41:23;;;;;;;72.03;44.22;;;8.70;96.10;;;;;;5014223;28;20473;-52
2021/12/01 04:43:50;;;;;;;35.92;22.52;;;8.60;96.60;;;;;;5014214;28;20034;-56
2021/12/01 04:46:19;;;;;;;21.40;13.48;;;8.70;96.10;;;;;;5013976;28;20053;-53
2021/12/01 04:48:48;;;;;;;14.32;8.95;;;8.70;96.20;;;;;;5014044;28;20045;-52
2021/12/01 04:51:14;;;;;;;13.43;7.22;;;8.60;95.90;;;;;;5014366;28;20060;-54
2021/12/01 04:53:40;;;;;;;12.38;8.00;;;8.50;96.10;;;;;;5013269;28;20465;-53
2021/12/01 04:56:06;;;;;;;9.07;6.88;;;8.50;95.90;;;;;;5014154;28;20037;-53
2021/12/01 04:58:33;;;;;;;15.20;8.95;;;8.50;96.00;;;;;;5013986;28;20032;-52
2021/12/01 05:01:00;;;;;;;14.43;8.88;;;8.50;95.80;;;;;;5012065;28;20041;-52
2021/12/01 05:03:27;;;;;;;13.07;8.07;;;8.50;95.80;;;;;;5005495;28;20077;-52
2021/12/01 05:05:52;;;;;;;15.25;8.35;;;8.50;96.00;;;;;;5007340;28;20021;-53
2021/12/01 05:08:20;;;;;;;14.57;9.63;;;8.50;96.00;;;;;;5016895;28;20046;-52
2021/12/01 05:10:46;;;;;;;14.68;9.70;;;8.50;96.40;;;;;;5013996;28;20096;-54
2021/12/01 05:13:12;;;;;;;14.75;9.60;;;8.40;96.10;;;;;;5008603;28;20060;-52
2021/12/01 05:15:38;;;;;;;21.23;11.32;;;8.40;96.40;;;;;;5013191;28;20458;-52
2021/12/01 05:18:04;;;;;;;22.42;14.75;;;8.40;96.40;;;;;;5023512;28;20147;-50
2021/12/01 05:20:29;;;;;;;23.13;15.85;;;8.20;96.40;;;;;;4993520;28;20042;-51
2021/12/01 05:22:55;;;;;;;22.00;15.50;;;8.40;96.60;;;;;;5008606;28;20362;-51
2021/12/01 05:25:21;;;;;;;31.98;20.50;;;8.40;96.90;;;;;;5013566;28;20109;-50
2021/12/01 05:27:47;;;;;;;42.50;27.98;;;8.30;96.80;;;;;;5013424;28;20108;-51
2021/12/01 05:30:13;;;;;;;38.03;24.88;;;8.00;96.70;;;;;;5013496;28;20029;-50
2021/12/01 05:32:39;;;;;;;22.60;15.55;;;7.50;97.50;;;;;;5027757;28;20045;-51
2021/12/01 05:35:05;;;;;;;16.38;10.85;;;7.00;98.40;;;;;;5028108;28;20481;-50
2021/12/01 05:37:31;;;;;;;21.25;10.38;;;6.80;98.80;;;;;;5009825;28;20554;-50
2021/12/01 05:39:57;;;;;;;12.18;7.95;;;6.80;99.00;;;;;;5008541;28;20533;-51
2021/12/01 05:42:22;;;;;;;11.38;7.50;;;6.80;98.90;;;;;;5007559;28;20073;-53
2021/12/01 05:44:48;;;;;;;15.98;8.82;;;6.70;99.00;;;;;;5010609;28;20073;-54
2021/12/01 05:47:15;;;;;;;11.60;7.38;;;6.70;99.00;;;;;;5008368;28;20053;-52
2021/12/01 05:49:43;;;;;;;13.52;9.02;;;6.70;98.70;;;;;;5006048;28;20129;-54
2021/12/01 05:52:12;;;;;;;12.55;8.52;;;6.80;98.60;;;;;;4978021;28;20053;-50
2021/12/01 05:54:39;;;;;;;11.00;7.47;;;6.80;98.40;;;;;;5010821;28;20029;-51
2021/12/01 05:57:05;;;;;;;13.60;8.55;;;6.90;98.30;;;;;;5006071;28;20054;-53
2021/12/01 05:59:31;;;;;;;13.50;8.55;;;6.80;98.10;;;;;;5010266;28;20032;-53
2021/12/01 06:01:57;;;;;;;17.45;10.70;;;6.70;98.20;;;;;;5008852;28;20500;-54
2021/12/01 06:04:27;;;;;;;14.48;9.77;;;6.60;98.40;;;;;;5010642;28;20108;-50
2021/12/01 06:06:53;;;;;;;12.68;8.85;;;6.60;98.50;;;;;;5004647;28;20104;-52
2021/12/01 06:09:19;;;;;;;10.20;6.57;;;6.60;98.70;;;;;;4998884;28;20042;-52
2021/12/01 06:11:47;;;;;;;11.20;6.18;;;6.70;98.80;;;;;;5000892;28;20415;-55
2021/12/01 06:14:14;;;;;;;10.15;5.65;;;6.80;98.70;;;;;;5001787;28;20458;-54
2021/12/01 06:16:40;;;;;;;6.95;5.13;;;7.00;98.40;;;;;;5002148;28;20022;-54
2021/12/01 06:19:06;;;;;;;7.13;4.80;;;7.10;98.10;;;;;;5005474;28;20832;-52
2021/12/01 06:21:31;;;;;;;7.55;5.15;;;7.20;97.70;;;;;;5004293;28;20088;-54
2021/12/01 06:23:57;;;;;;;11.05;6.85;;;7.40;97.50;;;;;;5005646;28;20025;-53
2021/12/01 06:26:23;;;;;;;24.77;18.55;;;7.30;97.70;;;;;;4991248;28;20120;-53
2021/12/01 06:28:48;;;;;;;46.97;27.80;;;7.40;97.80;;;;;;5004403;28;20458;-51
2021/12/01 06:31:15;;;;;;;40.47;22.60;;;7.50;97.90;;;;;;5003791;28;20025;-50
2021/12/01 06:33:41;;;;;;;36.47;20.42;;;7.70;97.30;;;;;;4986440;28;20038;-50
2021/12/01 06:36:07;;;;;;;24.80;17.90;;;8.70;97.10;;;;;;5002869;28;20052;-52
2021/12/01 06:38:33;;;;;;;12.13;9.10;;;10.20;95.80;;;;;;4972660;28;20042;-52
2021/12/01 06:40:59;;;;;;;23.30;14.50;;;10.50;94.40;;;;;;5004611;28;20402;-54
2021/12/01 06:43:25;;;;;;;46.22;26.85;;;10.50;93.50;;;;;;5000871;28;20526;-52
2021/12/01 06:45:50;;;;;;;69.57;38.10;;;11.20;93.60;;;;;;4999602;28;20033;-53
2021/12/01 06:48:16;;;;;;;46.85;25.58;;;11.30;92.50;;;;;;5006612;28;20033;-53
2021/12/01 06:50:42;;;;;;;16.00;10.77;;;11.80;92.00;;;;;;5015951;28;20073;-50
2021/12/01 06:53:08;;;;;;;12.93;8.48;;;11.80;91.90;;;;;;4999822;28;20041;-55
2021/12/01 06:55:33;;;;;;;10.75;7.22;;;11.60;92.60;;;;;;5002970;28;20029;-51
2021/12/01 06:57:59;;;;;;;20.52;14.20;;;11.40;93.30;;;;;;5001179;28;20034;-52
2021/12/01 07:00:25;;;;;;;28.13;15.68;;;11.80;93.90;;;;;;5016460;28;20041;-51
2021/12/01 07:02:52;;;;;;;24.38;16.52;;;11.50;93.50;;;;;;5002551;28;20038;-54
2021/12/01 07:05:18;;;;;;;26.00;17.33;;;11.90;93.80;;;;;;5017411;28;20394;-54
2021/12/01 07:07:44;;;;;;;26.73;17.83;;;12.10;93.10;;;;;;5016885;28;20037;-51
2021/12/01 07:10:11;;;;;;;18.70;12.95;;;12.50;92.80;;;;;;5002153;28;20096;-54
2021/12/01 07:12:38;;;;;;;20.33;12.57;;;12.60;92.50;;;;;;5020862;28;20096;-52
2021/12/01 07:15:05;;;;;;;15.60;10.98;;;13.00;91.80;;;;;;5012214;28;20072;-53
2021/12/01 07:17:31;;;;;;;22.15;15.27;;;13.00;91.20;;;;;;5011631;28;20042;-54
2021/12/01 07:19:57;;;;;;;36.17;21.58;;;13.10;91.30;;;;;;5015187;28;20101;-54
2021/12/01 07:22:22;;;;;;;62.17;35.63;;;12.50;92.00;;;;;;5015733;28;20026;-52
2021/12/01 07:24:48;;;;;;;45.25;26.27;;;12.90;91.40;;;;;;5015622;28;20049;-54
2021/12/01 07:27:15;;;;;;;18.23;12.63;;;12.30;91.60;;;;;;5033136;28;20049;-55
2021/12/01 07:29:42;;;;;;;19.90;13.27;;;11.70;92.00;;;;;;5033328;28;20095;-53
2021/12/01 07:32:10;;;;;;;21.15;14.07;;;10.90;93.40;;;;;;5030644;28;20429;-53
2021/12/01 07:34:41;;;;;;;34.90;23.85;;;10.50;94.30;;;;;;5032072;28;20032;-56
2021/12/01 07:37:12;;;;;;;43.22;28.05;;;10.20;94.40;;;;;;5032880;28;20076;-55
2021/12/01 07:39:39;;;;;;;43.00;28.10;;;10.30;94.80;;;;;;5027828;28;20051;-53
2021/12/01 07:42:06;;;;;;;46.40;29.67;;;10.50;94.90;;;;;;5025917;28;20046;-54
2021/12/01 07:44:33;;;;;;;32.30;21.55;;;10.50;95.20;;;;;;5004222;28;20576;-54
2021/12/01 07:46:59;;;;;;;29.05;20.00;;;11.00;95.40;;;;;;5031212;28;20382;-52
2021/12/01 07:49:25;;;;;;;30.00;20.52;;;12.20;95.70;;;;;;5024743;28;20037;-53
2021/12/01 07:51:51;;;;;;;28.08;19.70;;;13.40;93.50;;;;;;5010680;28;20064;-53
2021/12/01 07:54:17;;;;;;;22.58;17.10;;;14.00;93.40;;;;;;5016413;28;20056;-55
2021/12/01 07:56:43;;;;;;;19.63;14.45;;;14.50;92.60;;;;;;5016063;28;20519;-56
2021/12/01 07:59:11;;;;;;;18.70;13.13;;;15.00;91.30;;;;;;4982758;28;20038;-56
2021/12/01 08:01:37;;;;;;;25.67;18.85;;;16.10;90.70;;;;;;5014019;28;20525;-56
2021/12/01 08:04:03;;;;;;;19.30;15.75;;;17.50;90.60;;;;;;5015127;28;20113;-53
2021/12/01 08:06:32;;;;;;;23.23;18.52;;;18.10;87.00;;;;;;5013511;28;20436;-54
2021/12/01 08:09:00;;;;;;;18.98;16.00;;;18.20;87.10;;;;;;5014866;28;20038;-53
2021/12/01 08:11:26;;;;;;;13.98;11.18;;;;;;;;;;5015057;28;20402;-53
2021/12/01 08:13:52;;;;;;;16.58;13.25;;;20.00;80.90;;;;;;5014802;28;20057;-55
2021/12/01 08:16:18;;;;;;;17.67;14.30;;;20.50;82.00;;;;;;5013527;28;20092;-54
2021/12/01 08:18:44;;;;;;;14.60;11.77;;;20.70;80.70;;;;;;5014767;28;20512;-54
2021/12/01 08:21:10;;;;;;;16.15;12.07;;;19.30;79.70;;;;;;5029101;28;20057;-52
2021/12/01 08:23:36;;;;;;;14.40;10.80;;;19.40;81.20;;;;;;5014595;28;20065;-55
2021/12/01 08:26:02;;;;;;;11.70;8.52;;;19.30;79.70;;;;;;5014910;28;20072;-54
2021/12/01 08:28:28;;;;;;;13.65;9.63;;;18.20;79.50;;;;;;5012926;28;20033;-53
2021/12/01 08:30:53;;;;;;;13.50;9.25;;;18.00;80.90;;;;;;5014375;28;20038;-50
2021/12/01 08:33:19;;;;;;;13.70;11.10;;;18.00;81.20;;;;;;5012119;28;20149;-53
2021/12/01 08:35:45;;;;;;;10.43;8.93;;;18.10;82.30;;;;;;5012400;28;20132;-54
2021/12/01 08:38:11;;;;;;;10.43;7.55;;;18.70;81.50;;;;;;5014417;28;20045;-53
2021/12/01 08:40:37;;;;;;;11.70;8.48;;;18.80;80.70;;;;;;5014055;28;20080;-54
2021/12/01 08:43:03;;;;;;;10.90;9.80;;;20.10;80.20;;;;;;5014290;28;20048;-54
2021/12/01 08:45:29;;;;;;;12.18;10.32;;;21.70;79.90;;;;;;5014164;28;20117;-54
2021/12/01 08:47:55;;;;;;;10.27;8.77;;;;;;;;;;5012284;28;20042;-53
2021/12/01 08:50:21;;;;;;;11.13;10.02;;;24.30;74.30;;;;;;5014415;28;20117;-54
2021/12/01 08:52:48;;;;;;;11.50;10.40;;;25.00;73.50;;;;;;5014413;28;20121;-52
2021/12/01 08:55:14;;;;;;;12.07;10.98;;;25.70;71.10;;;;;;5014212;28;20072;-52
2021/12/01 08:57:40;;;;;;;10.88;9.48;;;26.10;69.90;;;;;;5013958;28;20030;-53
2021/12/01 09:00:07;;;;;;;11.75;10.45;;;26.50;68.30;;;;;;5014189;28;20512;-52
2021/12/01 09:02:33;;;;;;;10.95;8.52;;;25.90;67.60;;;;;;5013993;28;20103;-54
2021/12/01 09:04:59;;;;;;;15.38;9.55;;;25.40;67.00;;;;;;5014229;28;20037;-53
2021/12/01 09:07:25;;;;;;;11.50;8.63;;;24.20;67.20;;;;;;5013858;28;20619;-53
2021/12/01 09:09:51;;;;;;;14.20;10.13;;;23.10;67.00;;;;;;5013734;28;20045;-53
2021/12/01 09:12:18;;;;;;;14.48;12.38;;;22.00;68.80;;;;;;5014125;28;20042;-53
2021/12/01 09:14:44;;;;;;;15.55;13.90;;;22.00;70.00;;;;;;5013963;28;20048;-53
2021/12/01 09:17:12;;;;;;;19.27;16.05;;;23.00;69.40;;;;;;5014125;28;20030;-53
2021/12/01 09:19:39;;;;;;;17.23;15.43;;;23.70;69.50;;;;;;5013587;28;20069;-53
2021/12/01 09:22:05;;;;;;;24.98;22.05;;;25.00;68.20;;;;;;5013689;28;20036;-53
2021/12/01 09:24:31;;;;;;;24.13;20.08;;;;;;;;;;5013831;28;20037;-53
2021/12/01 09:26:57;;;;;;;18.15;16.25;;;25.80;66.10;;;;;;5011441;28;20046;-53
2021/12/01 09:29:23;;;;;;;25.73;23.02;;;26.00;66.30;;;;;;5013419;28;20161;-52
2021/12/01 09:31:49;;;;;;;21.33;17.92;;;26.60;68.80;;;;;;5013406;28;20030;-52
2021/12/01 09:34:15;;;;;;;55.72;41.95;;;;;;;;;;5013787;28;20045;-52
2021/12/01 09:36:41;;;;;;;31.45;24.60;;;;;;;;;;5013432;28;20037;-52
2021/12/01 09:39:07;;;;;;;29.98;26.88;;;27.10;62.10;;;;;;5012929;28;20393;-53
2021/12/01 09:41:33;;;;;;;26.60;23.98;;;27.40;62.60;;;;;;4994179;28;20140;-50
2021/12/01 09:43:59;;;;;;;24.50;22.10;;;26.50;62.30;;;;;;5013051;28;20037;-50
2021/12/01 09:46:27;;;;;;;24.30;21.77;;;26.70;63.20;;;;;;5013274;28;20053;-51
2021/12/01 09:48:53;;;;;;;26.80;24.10;;;26.40;63.10;;;;;;5013124;28;20038;-52
2021/12/01 09:51:19;;;;;;;25.38;22.88;;;26.20;62.10;;;;;;5013197;28;20033;-51
2021/12/01 09:53:46;;;;;;;21.85;19.55;;;;;;;;;;5013690;28;20041;-51
2021/12/01 09:56:12;;;;;;;26.85;24.30;;;25.30;61.50;;;;;;5013199;28;20084;-52
2021/12/01 09:58:38;;;;;;;20.88;18.85;;;26.50;60.80;;;;;;5013044;28;20088;-52
2021/12/01 10:01:08;;;;;;;23.95;21.65;;;26.30;62.40;;;;;;5012539;28;20572;-51
2021/12/01 10:03:34;;;;;;;21.70;19.60;;;27.00;62.40;;;;;;5027349;28;20044;-52
2021/12/01 10:06:04;;;;;;;20.98;19.02;;;27.50;61.80;;;;;;5012822;28;20098;-51
2021/12/01 10:08:34;;;;;;;22.80;20.85;;;27.40;61.10;;;;;;5013124;28;20038;-52
2021/12/01 10:11:07;;;;;;;17.73;15.98;;;26.80;60.30;;;;;;5012985;28;20034;-52
2021/12/01 10:13:37;;;;;;;21.90;19.80;;;26.60;59.90;;;;;;5027218;28;20038;-52
2021/12/01 10:16:05;;;;;;;19.67;17.98;;;26.80;61.20;;;;;;5012720;28;20038;-52
2021/12/01 10:18:55;;;;;;;16.88;15.18;;;25.80;60.00;;;;;;5010756;28;20077;-51
2021/12/01 10:21:28;;;;;;;34.78;30.92;;;26.80;61.00;;;;;;5012275;28;20050;-51
2021/12/01 10:24:19;;;;;;;16.77;15.15;;;26.70;60.70;;;;;;5012651;28;20397;-51
2021/12/01 10:26:47;;;;;;;16.27;14.77;;;27.40;59.40;;;;;;5030150;28;20038;-52
2021/12/01 10:29:21;;;;;;;15.02;13.63;;;27.00;58.80;;;;;;5029845;28;20042;-53
2021/12/01 10:32:01;;;;;;;15.80;14.38;;;27.20;59.10;;;;;;5029959;28;20034;-52
2021/12/01 10:34:41;;;;;;;15.40;14.00;;;27.70;58.40;;;;;;5030113;28;20116;-51
2021/12/01 10:37:15;;;;;;;16.33;14.75;;;;;;;;;;5029892;28;20050;-52
2021/12/01 10:39:46;;;;;;;12.05;10.85;;;28.20;63.90;;;;;;5029097;28;20080;-52
2021/12/01 10:42:15;;;;;;;13.30;11.05;;;;;;;;;;4995158;28;20056;-52
2021/12/01 10:44:59;;;;;;;11.40;10.10;;;;;;;;;;5029832;28;20132;-52
2021/12/01 10:47:35;;;;;;;9.15;8.25;;;28.20;58.10;;;;;;5029734;28;20056;-52
2021/12/01 10:50:03;;;;;;;11.63;10.73;;;28.20;57.50;;;;;;5029827;28;20057;-52
2021/12/01 10:52:34;;;;;;;8.48;7.63;;;28.20;57.50;;;;;;5025460;28;20033;-53
2021/12/01 10:55:25;;;;;;;9.05;8.15;;;28.20;57.50;;;;;;5001848;28;20049;-54
2021/12/01 10:57:58;;;;;;;10.15;9.25;;;28.40;57.40;;;;;;5014007;28;20130;-52
2021/12/01 11:00:29;;;;;;;7.88;7.05;;;28.30;56.80;;;;;;5013941;28;20046;-53
2021/12/01 11:03:05;;;;;;;;;;;27.70;56.80;;;;;;5011471;28;20036;-53
2021/12/01 11:05:34;;;;;;;8.80;7.15;;;27.80;57.50;;;;;;4996732;28;19991;-53
2021/12/01 11:08:15;;;;;;;7.93;7.13;;;27.50;58.60;;;;;;5010919;28;20502;-53
2021/12/01 11:10:43;;;;;;;9.48;7.03;;;27.70;58.10;;;;;;4996385;28;20038;-53
2021/12/01 11:13:09;;;;;;;8.63;7.13;;;27.70;58.00;;;;;;4996471;28;20034;-52
2021/12/01 11:15:41;;;;;;;9.15;8.35;;;27.60;57.50;;;;;;5010764;28;20061;-51
2021/12/01 11:18:15;;;;;;;12.23;11.02;;;27.40;58.00;;;;;;4996238;28;20430;-53
2021/12/01 11:20:46;;;;;;;8.70;7.90;;;26.20;57.20;;;;;;4996514;28;20037;-51
2021/12/01 11:23:12;;;;;;;7.50;6.90;;;25.30;57.60;;;;;;4996238;28;20041;-53
2021/12/01 11:25:39;;;;;;;7.32;6.72;;;25.50;59.70;;;;;;5010628;28;20050;-51
2021/12/01 11:28:13;;;;;;;14.70;11.45;;;24.70;59.20;;;;;;5010730;28;20056;-54
2021/12/01 11:30:41;;;;;;;8.90;7.55;;;24.90;60.10;;;;;;5013824;28;20049;-52
2021/12/01 11:33:11;;;;;;;14.55;12.02;;;24.50;59.70;;;;;;5013696;28;20045;-53
2021/12/01 11:35:38;;;;;;;9.50;8.60;;;24.80;60.40;;;;;;5015759;28;20042;-53
2021/12/01 11:38:04;;;;;;;12.98;9.38;;;24.80;60.40;;;;;;5015536;28;20029;-52
2021/12/01 11:40:30;;;;;;;6.82;5.63;;;24.30;60.70;;;;;;5015003;28;20401;-51
2021/12/01 11:42:57;;;;;;;6.60;5.40;;;24.80;61.60;;;;;;5015647;28;20367;-53
2021/12/01 11:45:24;;;;;;;9.30;8.68;;;25.10;61.40;;;;;;5015362;28;20389;-53
2021/12/01 11:47:51;;;;;;;7.82;7.22;;;25.50;61.00;;;;;;5029583;28;20065;-55
2021/12/01 11:50:42;;;;;;;9.93;9.13;;;25.50;60.70;;;;;;5013227;28;20092;-53
2021/12/01 11:53:15;;;;;;;4.68;4.32;;;25.50;60.50;;;;;;5015353;28;20037;-54
2021/12/01 11:55:57;;;;;;;4.72;4.30;;;25.30;60.00;;;;;;5015291;28;20058;-51
2021/12/01 11:58:41;;;;;;;7.00;3.85;;;24.80;60.40;;;;;;5015073;28;20543;-53
2021/12/01 12:01:29;;;;;;;3.25;2.90;;;24.70;61.40;;;;;;5015013;28;20080;-52
2021/12/01 12:04:01;;;;;;;3.80;2.40;;;24.40;61.50;;;;;;5014738;28;20029;-52
2021/12/01 12:06:31;;;;;;;3.92;2.78;;;23.90;61.30;;;;;;5015034;28;20049;-54
2021/12/01 12:09:04;;;;;;;3.20;2.28;;;23.80;62.90;;;;;;5014985;28;20109;-52
2021/12/01 12:11:35;;;;;;;2.53;1.48;;;23.50;63.30;;;;;;5014935;28;20057;-54
2021/12/01 12:14:04;;;;;;;4.63;1.83;;;23.20;61.70;;;;;;5014897;28;20026;-51
2021/12/01 12:16:30;;;;;;;4.05;1.45;;;23.20;61.70;;;;;;5012978;28;20543;-52
2021/12/01 12:18:57;;;;;;;11.63;5.22;;;23.10;62.80;;;;;;5012807;28;20549;-51
2021/12/01 12:21:52;;;;;;;1.90;1.33;;;23.20;62.10;;;;;;5014674;28;20042;-52
2021/12/01 12:24:24;;;;;;;2.92;1.33;;;23.10;62.50;;;;;;5014981;28;20084;-53
2021/12/01 12:26:59;;;;;;;5.88;2.15;;;22.80;63.20;;;;;;5014771;28;20034;-52
2021/12/01 12:29:26;;;;;;;5.95;2.05;;;22.50;63.10;;;;;;5014821;28;20034;-54
2021/12/01 12:32:13;;;;;;;6.38;2.25;;;22.40;63.90;;;;;;5014756;28;20022;-54
2021/12/01 12:34:51;;;;;;;7.85;5.57;;;22.40;64.60;;;;;;5014672;28;20101;-55
2021/12/01 12:37:29;;;;;;;11.73;5.05;;;22.40;64.00;;;;;;5014476;28;20070;-54
2021/12/01 12:39:56;;;;;;;32.72;14.18;;;22.20;63.50;;;;;;5008308;28;20038;-52
2021/12/01 12:42:22;;;;;;;16.30;7.07;;;21.80;63.60;;;;;;5011551;28;20401;-54
2021/12/01 12:44:56;;;;;;;7.88;4.00;;;21.50;63.80;;;;;;5008921;28;20026;-54
2021/12/01 12:47:26;;;;;;;5.10;2.67;;;21.40;65.00;;;;;;5003383;28;20053;-54
2021/12/01 12:50:16;;;;;;;4.15;1.95;;;21.30;65.40;;;;;;5009445;28;20073;-50
2021/12/01 12:52:48;;;;;;;1.95;1.13;;;21.30;65.20;;;;;;5004313;28;20041;-53
2021/12/01 12:55:23;;;;;;;1.75;1.00;;;21.20;66.20;;;;;;5003361;28;20026;-53